sensor_id;sensor_type;location;lat;lon;timestamp;P1;durP1;ratioP1;P2;durP2;ratioP2
2658;SDS011;1339;53.304;10.406;2023-03-17T00:01:16;5.25;;;3.30;;
2658;SDS011;1339;53.304;10.406;2023-03-17T00:03:43;4.00;;;3.70;;
2658;SDS011;1339;53.304;10.406;2023-03-17T00:06:12;4.43;;;4.03;;
2658;SDS011;1339;53.304;10.406;2023-03-17T00:08:41;7.25;;;3.10;;
2658;SDS011;1339;53.304;10.406;2023-03-17T00:11:09;3.20;;;2.80;;
2658;SDS011;1339;53.304;10.406;2023-03-17T00:13:39;3.65;;;3.33;;
2658;SDS011;1339;53.304;10.406;2023-03-17T00:16:09;4.35;;;4.05;;
2658;SDS011;1339;53.304;10.406;2023-03-17T00:18:38;5.35;;;3.95;;
2658;SDS011;1339;53.304;10.406;2023-03-17T00:21:05;5.60;;;5.20;;
2658;SDS011;1339;53.304;10.406;2023-03-17T00:23:32;4.20;;;3.30;;
2658;SDS011;1339;53.304;10.406;2023-03-17T00:25:59;3.83;;;3.53;;
2658;SDS011;1339;53.304;10.406;2023-03-17T00:28:26;3.88;;;3.58;;
2658;SDS011;1339;53.304;10.406;2023-03-17T00:30:55;3.92;;;3.60;;
2658;SDS011;1339;53.304;10.406;2023-03-17T00:33:23;3.10;;;2.80;;
2658;SDS011;1339;53.304;10.406;2023-03-17T00:35:50;4.63;;;3.72;;
2658;SDS011;1339;53.304;10.406;2023-03-17T00:38:17;3.45;;;3.20;;
2658;SDS011;1339;53.304;10.406;2023-03-17T00:40:45;8.32;;;3.58;;
2658;SDS011;1339;53.304;10.406;2023-03-17T00:43:12;3.55;;;3.25;;
2658;SDS011;1339;53.304;10.406;2023-03-17T00:45:40;4.78;;;3.20;;
2658;SDS011;1339;53.304;10.406;2023-03-17T00:48:11;4.20;;;3.90;;
2658;SDS011;1339;53.304;10.406;2023-03-17T00:50:39;5.80;;;3.13;;
2658;SDS011;1339;53.304;10.406;2023-03-17T00:53:08;2.72;;;2.50;;
2658;SDS011;1339;53.304;10.406;2023-03-17T00:55:35;3.78;;;3.25;;
2658;SDS011;1339;53.304;10.406;2023-03-17T00:58:05;4.20;;;3.28;;
2658;SDS011;1339;53.304;10.406;2023-03-17T01:00:36;3.50;;;3.13;;
2658;SDS011;1339;53.304;10.406;2023-03-17T01:03:03;8.48;;;3.88;;
2658;SDS011;1339;53.304;10.406;2023-03-17T01:05:32;4.35;;;2.90;;
2658;SDS011;1339;53.304;10.406;2023-03-17T01:07:59;3.00;;;2.70;;
2658;SDS011;1339;53.304;10.406;2023-03-17T01:10:26;4.90;;;4.40;;
2658;SDS011;1339;53.304;10.406;2023-03-17T01:12:54;3.83;;;3.45;;
2658;SDS011;1339;53.304;10.406;2023-03-17T01:15:22;4.90;;;3.20;;
2658;SDS011;1339;53.304;10.406;2023-03-17T01:17:49;3.30;;;3.10;;
2658;SDS011;1339;53.304;10.406;2023-03-17T01:20:17;3.00;;;2.80;;
2658;SDS011;1339;53.304;10.406;2023-03-17T01:22:47;4.10;;;2.80;;
2658;SDS011;1339;53.304;10.406;2023-03-17T01:25:16;3.08;;;2.88;;
2658;SDS011;1339;53.304;10.406;2023-03-17T01:27:44;4.70;;;3.28;;
2658;SDS011;1339;53.304;10.406;2023-03-17T01:30:16;4.13;;;2.67;;
2658;SDS011;1339;53.304;10.406;2023-03-17T01:32:47;3.63;;;3.08;;
2658;SDS011;1339;53.304;10.406;2023-03-17T01:35:15;5.00;;;2.65;;
2658;SDS011;1339;53.304;10.406;2023-03-17T01:37:42;4.55;;;3.00;;
2658;SDS011;1339;53.304;10.406;2023-03-17T01:40:12;4.07;;;3.03;;
2658;SDS011;1339;53.304;10.406;2023-03-17T01:42:41;3.35;;;2.95;;
2658;SDS011;1339;53.304;10.406;2023-03-17T01:47:51;3.65;;;3.33;;
2658;SDS011;1339;53.304;10.406;2023-03-17T01:50:18;3.72;;;3.33;;
2658;SDS011;1339;53.304;10.406;2023-03-17T01:52:45;4.20;;;3.80;;
2658;SDS011;1339;53.304;10.406;2023-03-17T01:55:14;3.22;;;3.03;;
2658;SDS011;1339;53.304;10.406;2023-03-17T01:57:43;4.00;;;3.10;;
2658;SDS011;1339;53.304;10.406;2023-03-17T02:00:15;4.05;;;3.65;;
2658;SDS011;1339;53.304;10.406;2023-03-17T02:02:44;3.85;;;3.20;;
2658;SDS011;1339;53.304;10.406;2023-03-17T02:05:12;4.35;;;3.88;;
2658;SDS011;1339;53.304;10.406;2023-03-17T02:07:41;4.20;;;3.65;;
2658;SDS011;1339;53.304;10.406;2023-03-17T02:10:09;4.95;;;2.80;;
2658;SDS011;1339;53.304;10.406;2023-03-17T02:12:38;3.85;;;3.47;;
2658;SDS011;1339;53.304;10.406;2023-03-17T02:15:06;3.58;;;3.28;;
2658;SDS011;1339;53.304;10.406;2023-03-17T02:17:33;6.30;;;3.88;;
2658;SDS011;1339;53.304;10.406;2023-03-17T02:22:49;4.65;;;3.55;;
2658;SDS011;1339;53.304;10.406;2023-03-17T02:25:17;3.17;;;2.83;;
2658;SDS011;1339;53.304;10.406;2023-03-17T02:27:45;4.68;;;4.25;;
2658;SDS011;1339;53.304;10.406;2023-03-17T02:30:14;6.68;;;4.00;;
2658;SDS011;1339;53.304;10.406;2023-03-17T02:32:43;3.63;;;2.92;;
2658;SDS011;1339;53.304;10.406;2023-03-17T02:35:10;3.15;;;2.95;;
2658;SDS011;1339;53.304;10.406;2023-03-17T02:37:37;5.20;;;3.40;;
2658;SDS011;1339;53.304;10.406;2023-03-17T02:40:08;5.05;;;4.30;;
2658;SDS011;1339;53.304;10.406;2023-03-17T02:42:35;5.07;;;4.18;;
2658;SDS011;1339;53.304;10.406;2023-03-17T02:45:03;5.70;;;4.15;;
2658;SDS011;1339;53.304;10.406;2023-03-17T02:47:30;4.03;;;3.63;;
2658;SDS011;1339;53.304;10.406;2023-03-17T02:49:57;5.78;;;3.58;;
2658;SDS011;1339;53.304;10.406;2023-03-17T02:52:24;4.30;;;3.60;;
2658;SDS011;1339;53.304;10.406;2023-03-17T02:54:51;5.35;;;4.55;;
2658;SDS011;1339;53.304;10.406;2023-03-17T02:57:20;6.15;;;4.07;;
2658;SDS011;1339;53.304;10.406;2023-03-17T02:59:47;5.15;;;3.85;;
2658;SDS011;1339;53.304;10.406;2023-03-17T03:02:14;3.85;;;3.50;;
2658;SDS011;1339;53.304;10.406;2023-03-17T03:04:41;4.78;;;4.38;;
2658;SDS011;1339;53.304;10.406;2023-03-17T03:07:08;5.22;;;4.20;;
2658;SDS011;1339;53.304;10.406;2023-03-17T03:09:35;5.40;;;4.22;;
2658;SDS011;1339;53.304;10.406;2023-03-17T03:12:02;5.00;;;4.10;;
2658;SDS011;1339;53.304;10.406;2023-03-17T03:14:31;4.85;;;4.22;;
2658;SDS011;1339;53.304;10.406;2023-03-17T03:16:58;5.57;;;3.50;;
2658;SDS011;1339;53.304;10.406;2023-03-17T03:19:25;5.35;;;3.63;;
2658;SDS011;1339;53.304;10.406;2023-03-17T03:21:52;4.55;;;4.18;;
2658;SDS011;1339;53.304;10.406;2023-03-17T03:24:23;4.80;;;4.00;;
2658;SDS011;1339;53.304;10.406;2023-03-17T03:26:50;4.70;;;3.60;;
2658;SDS011;1339;53.304;10.406;2023-03-17T03:29:17;3.80;;;3.50;;
2658;SDS011;1339;53.304;10.406;2023-03-17T03:31:46;4.22;;;3.80;;
2658;SDS011;1339;53.304;10.406;2023-03-17T03:34:13;7.95;;;4.82;;
2658;SDS011;1339;53.304;10.406;2023-03-17T03:36:40;5.00;;;3.92;;
2658;SDS011;1339;53.304;10.406;2023-03-17T03:39:07;4.10;;;3.70;;
2658;SDS011;1339;53.304;10.406;2023-03-17T03:41:34;5.63;;;4.63;;
2658;SDS011;1339;53.304;10.406;2023-03-17T03:44:01;4.20;;;3.80;;
2658;SDS011;1339;53.304;10.406;2023-03-17T03:46:28;5.15;;;4.32;;
2658;SDS011;1339;53.304;10.406;2023-03-17T03:48:56;6.38;;;4.68;;
2658;SDS011;1339;53.304;10.406;2023-03-17T03:51:23;7.35;;;4.28;;
2658;SDS011;1339;53.304;10.406;2023-03-17T03:53:51;5.90;;;3.67;;
2658;SDS011;1339;53.304;10.406;2023-03-17T03:56:18;6.80;;;3.85;;
2658;SDS011;1339;53.304;10.406;2023-03-17T03:58:45;4.85;;;4.43;;
2658;SDS011;1339;53.304;10.406;2023-03-17T04:01:12;5.30;;;4.22;;
2658;SDS011;1339;53.304;10.406;2023-03-17T04:03:39;8.30;;;4.22;;
2658;SDS011;1339;53.304;10.406;2023-03-17T04:06:07;5.30;;;4.10;;
2658;SDS011;1339;53.304;10.406;2023-03-17T04:08:35;5.22;;;4.10;;
2658;SDS011;1339;53.304;10.406;2023-03-17T04:11:02;4.88;;;4.07;;
2658;SDS011;1339;53.304;10.406;2023-03-17T04:13:29;6.88;;;4.30;;
2658;SDS011;1339;53.304;10.406;2023-03-17T04:15:56;4.25;;;3.85;;
2658;SDS011;1339;53.304;10.406;2023-03-17T04:18:23;5.03;;;4.43;;
2658;SDS011;1339;53.304;10.406;2023-03-17T04:20:50;4.68;;;4.28;;
2658;SDS011;1339;53.304;10.406;2023-03-17T04:23:18;5.18;;;4.68;;
2658;SDS011;1339;53.304;10.406;2023-03-17T04:25:46;6.07;;;4.95;;
2658;SDS011;1339;53.304;10.406;2023-03-17T04:28:12;4.70;;;4.20;;
2658;SDS011;1339;53.304;10.406;2023-03-17T04:30:39;7.07;;;4.45;;
2658;SDS011;1339;53.304;10.406;2023-03-17T04:33:06;5.45;;;4.10;;
2658;SDS011;1339;53.304;10.406;2023-03-17T04:35:33;5.85;;;3.90;;
2658;SDS011;1339;53.304;10.406;2023-03-17T04:38:01;11.57;;;4.68;;
2658;SDS011;1339;53.304;10.406;2023-03-17T04:40:29;4.85;;;4.45;;
2658;SDS011;1339;53.304;10.406;2023-03-17T04:42:56;7.93;;;5.00;;
2658;SDS011;1339;53.304;10.406;2023-03-17T04:45:23;6.82;;;5.75;;
2658;SDS011;1339;53.304;10.406;2023-03-17T04:47:50;7.10;;;6.50;;
2658;SDS011;1339;53.304;10.406;2023-03-17T04:50:17;5.40;;;4.90;;
2658;SDS011;1339;53.304;10.406;2023-03-17T04:52:44;8.57;;;4.90;;
2658;SDS011;1339;53.304;10.406;2023-03-17T04:55:11;5.75;;;5.07;;
2658;SDS011;1339;53.304;10.406;2023-03-17T04:57:39;6.13;;;5.22;;
2658;SDS011;1339;53.304;10.406;2023-03-17T05:00:07;4.93;;;4.47;;
2658;SDS011;1339;53.304;10.406;2023-03-17T05:02:35;5.22;;;4.72;;
2658;SDS011;1339;53.304;10.406;2023-03-17T05:05:03;4.88;;;4.38;;
2658;SDS011;1339;53.304;10.406;2023-03-17T05:07:30;5.18;;;4.68;;
2658;SDS011;1339;53.304;10.406;2023-03-17T05:09:57;4.50;;;4.10;;
2658;SDS011;1339;53.304;10.406;2023-03-17T05:12:24;7.18;;;4.82;;
2658;SDS011;1339;53.304;10.406;2023-03-17T05:14:52;5.53;;;4.70;;
2658;SDS011;1339;53.304;10.406;2023-03-17T05:17:19;5.80;;;4.70;;
2658;SDS011;1339;53.304;10.406;2023-03-17T05:19:46;6.38;;;4.57;;
2658;SDS011;1339;53.304;10.406;2023-03-17T05:22:13;4.85;;;3.78;;
2658;SDS011;1339;53.304;10.406;2023-03-17T05:24:40;5.40;;;4.90;;
2658;SDS011;1339;53.304;10.406;2023-03-17T05:27:07;5.57;;;4.45;;
2658;SDS011;1339;53.304;10.406;2023-03-17T05:29:34;4.72;;;4.35;;
2658;SDS011;1339;53.304;10.406;2023-03-17T05:32:03;9.73;;;5.13;;
2658;SDS011;1339;53.304;10.406;2023-03-17T05:34:30;5.80;;;4.53;;
2658;SDS011;1339;53.304;10.406;2023-03-17T05:36:57;6.07;;;4.60;;
2658;SDS011;1339;53.304;10.406;2023-03-17T05:39:24;5.55;;;5.05;;
2658;SDS011;1339;53.304;10.406;2023-03-17T05:41:51;5.45;;;3.97;;
2658;SDS011;1339;53.304;10.406;2023-03-17T05:44:18;5.65;;;4.65;;
2658;SDS011;1339;53.304;10.406;2023-03-17T05:46:45;5.47;;;4.97;;
2658;SDS011;1339;53.304;10.406;2023-03-17T05:49:14;6.47;;;4.95;;
2658;SDS011;1339;53.304;10.406;2023-03-17T05:51:41;7.80;;;4.47;;
2658;SDS011;1339;53.304;10.406;2023-03-17T05:54:08;4.93;;;4.50;;
2658;SDS011;1339;53.304;10.406;2023-03-17T05:56:34;5.00;;;4.60;;
2658;SDS011;1339;53.304;10.406;2023-03-17T05:59:01;5.22;;;4.63;;
2658;SDS011;1339;53.304;10.406;2023-03-17T06:01:29;4.95;;;4.47;;
2658;SDS011;1339;53.304;10.406;2023-03-17T06:03:56;5.55;;;4.78;;
2658;SDS011;1339;53.304;10.406;2023-03-17T06:06:26;7.55;;;5.03;;
2658;SDS011;1339;53.304;10.406;2023-03-17T06:08:53;6.00;;;4.35;;
2658;SDS011;1339;53.304;10.406;2023-03-17T06:11:20;9.70;;;5.10;;
2658;SDS011;1339;53.304;10.406;2023-03-17T06:13:47;5.60;;;5.10;;
2658;SDS011;1339;53.304;10.406;2023-03-17T06:16:14;8.57;;;6.22;;
2658;SDS011;1339;53.304;10.406;2023-03-17T06:18:41;5.25;;;4.75;;
2658;SDS011;1339;53.304;10.406;2023-03-17T06:21:08;6.22;;;4.68;;
2658;SDS011;1339;53.304;10.406;2023-03-17T06:23:36;5.03;;;4.55;;
2658;SDS011;1339;53.304;10.406;2023-03-17T06:26:04;7.53;;;5.32;;
2658;SDS011;1339;53.304;10.406;2023-03-17T06:28:31;5.57;;;4.45;;
2658;SDS011;1339;53.304;10.406;2023-03-17T06:30:58;8.10;;;5.35;;
2658;SDS011;1339;53.304;10.406;2023-03-17T06:33:25;5.45;;;4.93;;
2658;SDS011;1339;53.304;10.406;2023-03-17T06:35:52;9.00;;;4.47;;
2658;SDS011;1339;53.304;10.406;2023-03-17T06:38:19;5.68;;;4.85;;
2658;SDS011;1339;53.304;10.406;2023-03-17T06:40:47;5.20;;;4.80;;
2658;SDS011;1339;53.304;10.406;2023-03-17T06:43:14;7.35;;;6.70;;
2658;SDS011;1339;53.304;10.406;2023-03-17T06:45:43;5.55;;;5.05;;
2658;SDS011;1339;53.304;10.406;2023-03-17T06:48:10;5.05;;;4.40;;
2658;SDS011;1339;53.304;10.406;2023-03-17T06:50:37;5.70;;;4.65;;
2658;SDS011;1339;53.304;10.406;2023-03-17T06:53:04;4.90;;;4.32;;
2658;SDS011;1339;53.304;10.406;2023-03-17T06:55:32;9.23;;;4.80;;
2658;SDS011;1339;53.304;10.406;2023-03-17T06:58:00;8.32;;;5.25;;
2658;SDS011;1339;53.304;10.406;2023-03-17T07:00:27;5.70;;;5.10;;
2658;SDS011;1339;53.304;10.406;2023-03-17T07:02:55;5.30;;;4.85;;
2658;SDS011;1339;53.304;10.406;2023-03-17T07:05:22;7.00;;;4.60;;
2658;SDS011;1339;53.304;10.406;2023-03-17T07:07:49;4.90;;;4.47;;
2658;SDS011;1339;53.304;10.406;2023-03-17T07:10:16;5.75;;;4.70;;
2658;SDS011;1339;53.304;10.406;2023-03-17T07:12:43;5.53;;;5.03;;
2658;SDS011;1339;53.304;10.406;2023-03-17T07:15:12;5.20;;;4.55;;
2658;SDS011;1339;53.304;10.406;2023-03-17T07:17:39;6.55;;;5.53;;
2658;SDS011;1339;53.304;10.406;2023-03-17T07:20:06;5.35;;;4.85;;
2658;SDS011;1339;53.304;10.406;2023-03-17T07:22:34;6.03;;;5.40;;
2658;SDS011;1339;53.304;10.406;2023-03-17T07:25:01;6.45;;;4.93;;
2658;SDS011;1339;53.304;10.406;2023-03-17T07:27:28;5.93;;;5.07;;
2658;SDS011;1339;53.304;10.406;2023-03-17T07:29:55;7.68;;;4.80;;
2658;SDS011;1339;53.304;10.406;2023-03-17T07:32:27;6.32;;;5.10;;
2658;SDS011;1339;53.304;10.406;2023-03-17T07:34:54;9.30;;;4.25;;
2658;SDS011;1339;53.304;10.406;2023-03-17T07:37:22;5.93;;;4.38;;
2658;SDS011;1339;53.304;10.406;2023-03-17T07:39:49;5.22;;;4.35;;
2658;SDS011;1339;53.304;10.406;2023-03-17T07:42:16;6.28;;;5.68;;
2658;SDS011;1339;53.304;10.406;2023-03-17T07:44:43;5.50;;;4.28;;
2658;SDS011;1339;53.304;10.406;2023-03-17T07:47:10;5.10;;;4.57;;
2658;SDS011;1339;53.304;10.406;2023-03-17T07:49:40;4.63;;;4.20;;
2658;SDS011;1339;53.304;10.406;2023-03-17T07:52:07;6.50;;;4.88;;
2658;SDS011;1339;53.304;10.406;2023-03-17T07:54:34;4.93;;;4.47;;
2658;SDS011;1339;53.304;10.406;2023-03-17T07:57:02;7.13;;;4.93;;
2658;SDS011;1339;53.304;10.406;2023-03-17T07:59:28;4.82;;;4.43;;
2658;SDS011;1339;53.304;10.406;2023-03-17T08:01:56;4.95;;;4.50;;
2658;SDS011;1339;53.304;10.406;2023-03-17T08:04:25;5.10;;;4.60;;
2658;SDS011;1339;53.304;10.406;2023-03-17T08:06:53;5.63;;;5.13;;
2658;SDS011;1339;53.304;10.406;2023-03-17T08:09:21;5.60;;;4.70;;
2658;SDS011;1339;53.304;10.406;2023-03-17T08:11:48;5.20;;;4.75;;
2658;SDS011;1339;53.304;10.406;2023-03-17T08:14:15;7.18;;;4.82;;
2658;SDS011;1339;53.304;10.406;2023-03-17T08:16:42;4.68;;;4.28;;
2658;SDS011;1339;53.304;10.406;2023-03-17T08:19:09;5.60;;;4.07;;
2658;SDS011;1339;53.304;10.406;2023-03-17T08:21:36;5.45;;;4.95;;
2658;SDS011;1339;53.304;10.406;2023-03-17T08:24:04;5.68;;;4.80;;
2658;SDS011;1339;53.304;10.406;2023-03-17T08:26:34;9.70;;;5.45;;
2658;SDS011;1339;53.304;10.406;2023-03-17T08:29:14;5.22;;;4.82;;
2658;SDS011;1339;53.304;10.406;2023-03-17T08:31:48;6.20;;;4.70;;
2658;SDS011;1339;53.304;10.406;2023-03-17T08:34:15;4.75;;;4.35;;
2658;SDS011;1339;53.304;10.406;2023-03-17T08:36:42;4.35;;;3.95;;
2658;SDS011;1339;53.304;10.406;2023-03-17T08:39:11;5.20;;;4.70;;
2658;SDS011;1339;53.304;10.406;2023-03-17T08:41:38;5.50;;;4.45;;
2658;SDS011;1339;53.304;10.406;2023-03-17T08:44:05;4.53;;;4.13;;
2658;SDS011;1339;53.304;10.406;2023-03-17T08:46:33;6.28;;;4.80;;
2658;SDS011;1339;53.304;10.406;2023-03-17T08:49:00;5.72;;;4.35;;
2658;SDS011;1339;53.304;10.406;2023-03-17T08:51:28;8.70;;;5.53;;
2658;SDS011;1339;53.304;10.406;2023-03-17T08:53:55;5.90;;;3.80;;
2658;SDS011;1339;53.304;10.406;2023-03-17T08:56:24;4.85;;;3.90;;
2658;SDS011;1339;53.304;10.406;2023-03-17T08:58:51;6.30;;;4.95;;
2658;SDS011;1339;53.304;10.406;2023-03-17T09:01:18;3.83;;;3.38;;
2658;SDS011;1339;53.304;10.406;2023-03-17T09:03:47;8.25;;;4.65;;
2658;SDS011;1339;53.304;10.406;2023-03-17T09:06:14;6.25;;;5.07;;
2658;SDS011;1339;53.304;10.406;2023-03-17T09:08:42;5.80;;;4.10;;
2658;SDS011;1339;53.304;10.406;2023-03-17T09:11:12;7.50;;;5.00;;
2658;SDS011;1339;53.304;10.406;2023-03-17T09:13:41;8.07;;;4.80;;
2658;SDS011;1339;53.304;10.406;2023-03-17T09:16:10;5.15;;;4.13;;
2658;SDS011;1339;53.304;10.406;2023-03-17T09:18:37;7.97;;;4.70;;
2658;SDS011;1339;53.304;10.406;2023-03-17T09:21:04;8.63;;;5.15;;
2658;SDS011;1339;53.304;10.406;2023-03-17T09:23:31;4.82;;;4.20;;
2658;SDS011;1339;53.304;10.406;2023-03-17T09:25:58;6.68;;;5.85;;
2658;SDS011;1339;53.304;10.406;2023-03-17T09:28:26;5.60;;;4.45;;
2658;SDS011;1339;53.304;10.406;2023-03-17T09:30:57;5.07;;;4.40;;
2658;SDS011;1339;53.304;10.406;2023-03-17T09:33:25;9.00;;;4.32;;
2658;SDS011;1339;53.304;10.406;2023-03-17T09:35:52;6.13;;;4.25;;
2658;SDS011;1339;53.304;10.406;2023-03-17T09:38:21;5.25;;;4.40;;
2658;SDS011;1339;53.304;10.406;2023-03-17T09:40:49;5.00;;;4.50;;
2658;SDS011;1339;53.304;10.406;2023-03-17T09:43:21;7.65;;;3.83;;
2658;SDS011;1339;53.304;10.406;2023-03-17T09:45:50;4.68;;;4.22;;
2658;SDS011;1339;53.304;10.406;2023-03-17T09:48:30;8.00;;;4.40;;
2658;SDS011;1339;53.304;10.406;2023-03-17T09:51:02;5.20;;;4.65;;
2658;SDS011;1339;53.304;10.406;2023-03-17T09:53:31;6.80;;;5.45;;
2658;SDS011;1339;53.304;10.406;2023-03-17T09:56:00;7.22;;;3.80;;
2658;SDS011;1339;53.304;10.406;2023-03-17T09:58:29;4.15;;;3.58;;
2658;SDS011;1339;53.304;10.406;2023-03-17T10:00:57;6.68;;;4.65;;
2658;SDS011;1339;53.304;10.406;2023-03-17T10:03:24;4.72;;;4.18;;
2658;SDS011;1339;53.304;10.406;2023-03-17T10:05:53;4.95;;;4.20;;
2658;SDS011;1339;53.304;10.406;2023-03-17T10:08:25;5.93;;;3.90;;
2658;SDS011;1339;53.304;10.406;2023-03-17T10:10:54;4.50;;;3.38;;
2658;SDS011;1339;53.304;10.406;2023-03-17T10:13:26;5.03;;;3.35;;
2658;SDS011;1339;53.304;10.406;2023-03-17T10:15:57;4.25;;;3.78;;
2658;SDS011;1339;53.304;10.406;2023-03-17T10:18:25;4.00;;;3.70;;
2658;SDS011;1339;53.304;10.406;2023-03-17T10:20:55;6.60;;;3.53;;
2658;SDS011;1339;53.304;10.406;2023-03-17T10:23:24;4.70;;;3.38;;
2658;SDS011;1339;53.304;10.406;2023-03-17T10:25:53;5.13;;;3.40;;
2658;SDS011;1339;53.304;10.406;2023-03-17T10:28:23;4.30;;;3.45;;
2658;SDS011;1339;53.304;10.406;2023-03-17T10:30:51;6.40;;;3.58;;
2658;SDS011;1339;53.304;10.406;2023-03-17T10:33:18;4.22;;;3.67;;
2658;SDS011;1339;53.304;10.406;2023-03-17T10:35:46;4.03;;;3.22;;
2658;SDS011;1339;53.304;10.406;2023-03-17T10:38:15;5.82;;;4.00;;
2658;SDS011;1339;53.304;10.406;2023-03-17T10:40:43;4.30;;;2.95;;
2658;SDS011;1339;53.304;10.406;2023-03-17T10:43:15;4.15;;;3.47;;
2658;SDS011;1339;53.304;10.406;2023-03-17T10:45:46;3.55;;;3.25;;
2658;SDS011;1339;53.304;10.406;2023-03-17T10:48:15;3.30;;;3.00;;
2658;SDS011;1339;53.304;10.406;2023-03-17T10:50:44;4.07;;;3.17;;
2658;SDS011;1339;53.304;10.406;2023-03-17T10:53:18;3.53;;;3.22;;
2658;SDS011;1339;53.304;10.406;2023-03-17T10:55:52;3.73;;;3.33;;
2658;SDS011;1339;53.304;10.406;2023-03-17T10:58:20;4.87;;;2.73;;
2658;SDS011;1339;53.304;10.406;2023-03-17T11:00:50;2.73;;;2.53;;
2658;SDS011;1339;53.304;10.406;2023-03-17T11:03:21;4.27;;;3.30;;
2658;SDS011;1339;53.304;10.406;2023-03-17T11:05:53;3.87;;;3.07;;
2658;SDS011;1339;53.304;10.406;2023-03-17T11:08:22;4.37;;;3.00;;
2658;SDS011;1339;53.304;10.406;2023-03-17T11:10:52;3.90;;;3.10;;
2658;SDS011;1339;53.304;10.406;2023-03-17T11:13:20;4.97;;;2.83;;
2658;SDS011;1339;53.304;10.406;2023-03-17T11:15:48;3.77;;;3.30;;
2658;SDS011;1339;53.304;10.406;2023-03-17T11:18:18;4.17;;;2.63;;
2658;SDS011;1339;53.304;10.406;2023-03-17T11:20:47;2.70;;;2.50;;
2658;SDS011;1339;53.304;10.406;2023-03-17T11:23:19;4.53;;;3.50;;
2658;SDS011;1339;53.304;10.406;2023-03-17T11:25:51;3.50;;;3.00;;
2658;SDS011;1339;53.304;10.406;2023-03-17T11:28:21;4.23;;;2.57;;
2658;SDS011;1339;53.304;10.406;2023-03-17T11:30:52;7.60;;;3.90;;
2658;SDS011;1339;53.304;10.406;2023-03-17T11:33:33;2.90;;;2.67;;
2658;SDS011;1339;53.304;10.406;2023-03-17T11:36:02;3.37;;;2.73;;
2658;SDS011;1339;53.304;10.406;2023-03-17T11:38:32;3.73;;;3.27;;
2658;SDS011;1339;53.304;10.406;2023-03-17T11:41:07;3.50;;;2.53;;
2658;SDS011;1339;53.304;10.406;2023-03-17T11:43:36;3.93;;;3.40;;
2658;SDS011;1339;53.304;10.406;2023-03-17T11:46:11;3.33;;;2.50;;
2658;SDS011;1339;53.304;10.406;2023-03-17T11:48:44;3.20;;;2.93;;
2658;SDS011;1339;53.304;10.406;2023-03-17T11:51:15;2.73;;;2.30;;
2658;SDS011;1339;53.304;10.406;2023-03-17T11:56:33;3.80;;;2.53;;
2658;SDS011;1339;53.304;10.406;2023-03-17T11:59:02;3.27;;;2.33;;
2658;SDS011;1339;53.304;10.406;2023-03-17T12:01:33;5.13;;;2.00;;
2658;SDS011;1339;53.304;10.406;2023-03-17T12:04:08;4.23;;;3.43;;
2658;SDS011;1339;53.304;10.406;2023-03-17T12:06:37;2.70;;;2.33;;
2658;SDS011;1339;53.304;10.406;2023-03-17T12:09:07;3.70;;;2.30;;
2658;SDS011;1339;53.304;10.406;2023-03-17T12:11:39;4.80;;;2.03;;
2658;SDS011;1339;53.304;10.406;2023-03-17T12:14:12;3.50;;;3.20;;
2658;SDS011;1339;53.304;10.406;2023-03-17T12:16:40;4.40;;;2.83;;
2658;SDS011;1339;53.304;10.406;2023-03-17T12:19:11;3.07;;;2.77;;
2658;SDS011;1339;53.304;10.406;2023-03-17T12:21:41;6.83;;;2.60;;
2658;SDS011;1339;53.304;10.406;2023-03-17T12:24:12;3.47;;;2.50;;
2658;SDS011;1339;53.304;10.406;2023-03-17T12:26:43;3.90;;;2.93;;
2658;SDS011;1339;53.304;10.406;2023-03-17T12:29:14;2.93;;;2.23;;
2658;SDS011;1339;53.304;10.406;2023-03-17T12:31:43;5.77;;;2.30;;
2658;SDS011;1339;53.304;10.406;2023-03-17T12:34:12;3.10;;;2.80;;
2658;SDS011;1339;53.304;10.406;2023-03-17T12:36:44;2.23;;;1.97;;
2658;SDS011;1339;53.304;10.406;2023-03-17T12:39:12;2.60;;;2.30;;
2658;SDS011;1339;53.304;10.406;2023-03-17T12:41:56;4.40;;;1.90;;
2658;SDS011;1339;53.304;10.406;2023-03-17T12:44:30;3.10;;;2.20;;
2658;SDS011;1339;53.304;10.406;2023-03-17T12:47:05;3.43;;;2.50;;
2658;SDS011;1339;53.304;10.406;2023-03-17T12:49:38;3.77;;;2.93;;
2658;SDS011;1339;53.304;10.406;2023-03-17T12:52:13;2.60;;;2.10;;
2658;SDS011;1339;53.304;10.406;2023-03-17T12:54:43;3.97;;;2.33;;
2658;SDS011;1339;53.304;10.406;2023-03-17T12:57:13;2.83;;;2.43;;
2658;SDS011;1339;53.304;10.406;2023-03-17T12:59:43;4.23;;;2.13;;
2658;SDS011;1339;53.304;10.406;2023-03-17T13:02:15;2.67;;;2.03;;
2658;SDS011;1339;53.304;10.406;2023-03-17T13:04:47;3.20;;;1.90;;
2658;SDS011;1339;53.304;10.406;2023-03-17T13:07:18;2.20;;;2.00;;
2658;SDS011;1339;53.304;10.406;2023-03-17T13:09:48;2.97;;;2.50;;
2658;SDS011;1339;53.304;10.406;2023-03-17T13:15:25;2.83;;;2.20;;
2658;SDS011;1339;53.304;10.406;2023-03-17T13:18:09;3.47;;;2.37;;
2658;SDS011;1339;53.304;10.406;2023-03-17T13:20:36;2.17;;;1.97;;
2658;SDS011;1339;53.304;10.406;2023-03-17T13:23:10;3.10;;;2.10;;
2658;SDS011;1339;53.304;10.406;2023-03-17T13:25:46;2.33;;;2.13;;
2658;SDS011;1339;53.304;10.406;2023-03-17T13:28:22;2.30;;;2.10;;
2658;SDS011;1339;53.304;10.406;2023-03-17T13:31:05;3.90;;;2.70;;
2658;SDS011;1339;53.304;10.406;2023-03-17T13:33:33;4.30;;;2.53;;
2658;SDS011;1339;53.304;10.406;2023-03-17T13:36:07;3.40;;;2.10;;
2658;SDS011;1339;53.304;10.406;2023-03-17T13:38:40;2.60;;;2.17;;
2658;SDS011;1339;53.304;10.406;2023-03-17T13:41:24;3.10;;;2.40;;
2658;SDS011;1339;53.304;10.406;2023-03-17T13:43:59;5.40;;;2.50;;
2658;SDS011;1339;53.304;10.406;2023-03-17T13:46:32;2.73;;;2.20;;
2658;SDS011;1339;53.304;10.406;2023-03-17T13:49:00;2.17;;;2.00;;
2658;SDS011;1339;53.304;10.406;2023-03-17T13:51:30;2.60;;;2.07;;
2658;SDS011;1339;53.304;10.406;2023-03-17T13:54:05;3.40;;;2.10;;
2658;SDS011;1339;53.304;10.406;2023-03-17T13:56:44;2.37;;;2.17;;
2658;SDS011;1339;53.304;10.406;2023-03-17T13:59:12;4.47;;;2.40;;
2658;SDS011;1339;53.304;10.406;2023-03-17T14:01:42;5.67;;;2.60;;
2658;SDS011;1339;53.304;10.406;2023-03-17T14:04:13;2.13;;;1.93;;
2658;SDS011;1339;53.304;10.406;2023-03-17T14:06:43;3.80;;;2.27;;
2658;SDS011;1339;53.304;10.406;2023-03-17T14:09:15;5.13;;;2.00;;
2658;SDS011;1339;53.304;10.406;2023-03-17T14:11:45;2.00;;;1.80;;
2658;SDS011;1339;53.304;10.406;2023-03-17T14:14:19;4.07;;;2.33;;
2658;SDS011;1339;53.304;10.406;2023-03-17T14:17:08;2.90;;;2.30;;
2658;SDS011;1339;53.304;10.406;2023-03-17T14:19:36;2.90;;;2.60;;
2658;SDS011;1339;53.304;10.406;2023-03-17T14:22:17;2.20;;;1.70;;
2658;SDS011;1339;53.304;10.406;2023-03-17T14:24:44;4.10;;;3.23;;
2658;SDS011;1339;53.304;10.406;2023-03-17T14:27:11;6.60;;;2.53;;
2658;SDS011;1339;53.304;10.406;2023-03-17T14:29:39;3.10;;;1.80;;
2658;SDS011;1339;53.304;10.406;2023-03-17T14:32:11;2.60;;;2.40;;
2658;SDS011;1339;53.304;10.406;2023-03-17T14:34:40;2.87;;;2.57;;
2658;SDS011;1339;53.304;10.406;2023-03-17T14:37:08;3.67;;;1.80;;
2658;SDS011;1339;53.304;10.406;2023-03-17T14:39:37;3.13;;;2.27;;
2658;SDS011;1339;53.304;10.406;2023-03-17T14:42:09;4.20;;;2.33;;
2658;SDS011;1339;53.304;10.406;2023-03-17T14:44:37;2.80;;;2.60;;
2658;SDS011;1339;53.304;10.406;2023-03-17T14:47:04;2.20;;;2.00;;
2658;SDS011;1339;53.304;10.406;2023-03-17T14:49:34;4.20;;;3.17;;
2658;SDS011;1339;53.304;10.406;2023-03-17T14:52:01;3.03;;;2.77;;
2658;SDS011;1339;53.304;10.406;2023-03-17T14:54:29;3.50;;;2.13;;
2658;SDS011;1339;53.304;10.406;2023-03-17T14:56:58;4.80;;;2.80;;
2658;SDS011;1339;53.304;10.406;2023-03-17T14:59:28;4.23;;;2.23;;
2658;SDS011;1339;53.304;10.406;2023-03-17T15:01:56;2.33;;;2.00;;
2658;SDS011;1339;53.304;10.406;2023-03-17T15:04:24;3.33;;;2.37;;
2658;SDS011;1339;53.304;10.406;2023-03-17T15:06:53;2.63;;;2.27;;
2658;SDS011;1339;53.304;10.406;2023-03-17T15:09:23;3.00;;;2.27;;
2658;SDS011;1339;53.304;10.406;2023-03-17T15:11:52;3.00;;;2.20;;
2658;SDS011;1339;53.304;10.406;2023-03-17T15:14:20;4.00;;;2.40;;
2658;SDS011;1339;53.304;10.406;2023-03-17T15:16:50;3.67;;;2.20;;
2658;SDS011;1339;53.304;10.406;2023-03-17T15:19:18;3.10;;;2.23;;
2658;SDS011;1339;53.304;10.406;2023-03-17T15:21:46;2.80;;;1.93;;